createdAt,value
2019-02-18T00:01:47.702Z,100320.19
2019-02-18T00:04:18.199Z,100320.20
2019-02-18T00:06:48.637Z,100312.20
2019-02-18T00:09:19.077Z,100315.59
2019-02-18T00:11:49.557Z,100321.14
2019-02-18T00:14:20.085Z,100317.82
2019-02-18T00:16:50.523Z,100321.97
2019-02-18T00:19:21.063Z,100319.70
2019-02-18T00:21:51.505Z,100326.43
2019-02-18T00:24:21.990Z,100325.08
2019-02-18T00:26:52.426Z,100320.44
2019-02-18T00:29:22.908Z,100317.70
2019-02-18T00:31:53.348Z,100323.03
2019-02-18T00:34:23.784Z,100318.66
2019-02-18T00:36:54.829Z,100322.46
2019-02-18T00:39:25.262Z,100319.49
2019-02-18T00:41:56.405Z,100320.02
2019-02-18T00:44:27.227Z,100321.87
2019-02-18T00:46:58.389Z,100323.78
2019-02-18T00:49:29.160Z,100315.71
2019-02-18T00:52:00.021Z,100319.34
2019-02-18T00:54:30.461Z,100318.06
2019-02-18T00:57:00.931Z,100320.14
2019-02-18T00:59:31.371Z,100319.22
2019-02-18T01:02:01.872Z,100317.14
2019-02-18T01:04:32.309Z,100311.00
2019-02-18T01:07:02.872Z,100315.59
2019-02-18T01:09:33.315Z,100310.46
2019-02-18T01:12:04.122Z,100308.41
2019-02-18T01:14:34.606Z,100307.30
2019-02-18T01:17:05.051Z,100309.17
2019-02-18T01:19:36.609Z,100311.97
2019-02-18T01:22:07.168Z,100312.84
2019-02-18T01:24:37.610Z,100315.70
2019-02-18T01:27:08.377Z,100310.88
2019-02-18T01:29:39.306Z,100306.66
2019-02-18T01:32:09.853Z,100310.42
2019-02-18T01:34:40.289Z,100310.09
2019-02-18T01:37:10.804Z,100307.94
2019-02-18T01:39:41.242Z,100305.73
2019-02-18T01:42:11.682Z,100304.86
2019-02-18T01:44:42.537Z,100307.16
2019-02-18T01:47:13.516Z,100309.04
2019-02-18T01:49:44.003Z,100307.66
2019-02-18T01:52:14.440Z,100305.23
2019-02-18T01:54:44.877Z,100302.38
2019-02-18T01:57:15.686Z,100298.26
2019-02-18T01:59:46.122Z,100305.14
2019-02-18T02:02:16.580Z,100302.90
2019-02-18T02:04:47.048Z,100309.83
2019-02-18T02:07:17.487Z,100300.20
2019-02-18T02:09:49.167Z,100301.44
2019-02-18T02:12:19.901Z,100295.79
2019-02-18T02:14:50.343Z,100302.11
2019-02-18T02:17:20.817Z,100289.41
2019-02-18T02:19:51.290Z,100288.13
2019-02-18T02:22:22.849Z,100289.48
2019-02-18T02:24:53.365Z,100288.06
2019-02-18T02:27:23.803Z,100287.46
2019-02-18T02:29:54.282Z,100283.61
2019-02-18T02:32:25.345Z,100281.45
2019-02-18T02:34:55.776Z,100280.52
2019-02-18T02:37:26.265Z,100276.89
2019-02-18T02:39:56.710Z,100279.55
2019-02-18T02:42:28.392Z,100279.42
2019-02-18T02:44:59.014Z,100278.32
2019-02-18T02:47:29.467Z,100287.49
2019-02-18T02:50:00.763Z,100285.30
2019-02-18T02:52:31.220Z,100283.20
2019-02-18T02:55:01.655Z,100283.11
2019-02-18T02:57:32.506Z,100281.94
2019-02-18T03:00:02.953Z,100283.64
2019-02-18T03:02:33.467Z,100279.75
2019-02-18T03:05:03.912Z,100276.86
2019-02-18T03:07:34.668Z,100275.77
2019-02-18T03:10:05.333Z,100279.66
2019-02-18T03:12:35.776Z,100276.06
2019-02-18T03:15:06.777Z,100273.03
2019-02-18T03:17:37.438Z,100269.67
2019-02-18T03:20:08.042Z,100265.12
2019-02-18T03:22:38.480Z,100267.94
2019-02-18T03:25:25.691Z,100270.01
2019-02-18T03:28:19.829Z,100271.70
2019-02-18T03:31:05.996Z,100276.52
2019-02-18T03:33:43.244Z,100277.27
2019-02-18T03:36:13.733Z,100277.51
2019-02-18T03:38:44.175Z,100282.41
2019-02-18T03:41:14.999Z,100281.47
2019-02-18T03:43:45.486Z,100283.89
2019-02-18T03:46:15.920Z,100281.13
2019-02-18T03:48:46.355Z,100280.14
2019-02-18T03:51:17.170Z,100273.06
2019-02-18T03:53:47.969Z,100276.66
2019-02-18T03:56:18.409Z,100280.91
2019-02-18T03:58:48.907Z,100276.16
2019-02-18T04:01:19.358Z,100281.61
2019-02-18T04:03:50.200Z,100279.52
2019-02-18T04:06:20.711Z,100275.86
2019-02-18T04:08:51.159Z,100281.55
2019-02-18T04:11:22.041Z,100271.08
2019-02-18T04:13:52.978Z,100274.00
2019-02-18T04:16:23.688Z,100271.97
2019-02-18T04:18:54.175Z,100267.52
2019-02-18T04:21:24.623Z,100269.47
2019-02-18T04:23:55.071Z,100281.09
2019-02-18T04:26:25.860Z,100264.38
2019-02-18T04:28:56.629Z,100274.80
2019-02-18T04:31:27.079Z,100277.61
2019-02-18T04:33:57.547Z,100276.05
2019-02-18T04:36:28.282Z,100279.53
2019-02-18T04:38:59.106Z,100273.76
2019-02-18T04:41:29.549Z,100278.94
2019-02-18T04:44:00.411Z,100279.17
2019-02-18T04:46:30.854Z,100275.77
2019-02-18T04:49:01.303Z,100278.31
2019-02-18T04:51:31.775Z,100282.92
2019-02-18T04:54:02.373Z,100280.76
2019-02-18T04:56:33.139Z,100283.39
2019-02-18T04:59:03.579Z,100286.80
2019-02-18T05:01:34.367Z,100288.48
2019-02-18T05:04:05.232Z,100283.52
2019-02-18T05:06:35.662Z,100285.81
2019-02-18T05:09:06.844Z,100288.01
2019-02-18T05:11:37.832Z,100288.03
2019-02-18T05:14:08.438Z,100287.06
2019-02-18T05:16:39.309Z,100284.40
2019-02-18T05:19:09.758Z,100280.69
2019-02-18T05:21:40.886Z,100280.67
2019-02-18T05:24:11.373Z,100284.89
2019-02-18T05:26:42.143Z,100274.37
2019-02-18T05:29:12.639Z,100272.20
2019-02-18T05:31:43.085Z,100271.97
2019-02-18T05:34:13.845Z,100273.67
2019-02-18T05:36:44.519Z,100271.59
2019-02-18T05:39:17.810Z,100276.31
2019-02-18T05:41:47.104Z,100272.95
2019-02-18T05:44:17.593Z,100272.46
2019-02-18T05:46:48.394Z,100267.77
2019-02-18T05:49:19.579Z,100271.13
2019-02-18T05:51:50.321Z,100272.95
2019-02-18T05:54:20.786Z,100272.59
2019-02-18T05:56:51.210Z,100271.39
2019-02-18T05:59:22.043Z,100271.03
2019-02-18T06:01:52.514Z,100270.08
2019-02-18T06:04:22.969Z,100274.06
2019-02-18T06:06:54.752Z,100266.80
2019-02-18T06:09:29.642Z,100270.68
2019-02-18T06:11:58.386Z,100277.55
2019-02-18T06:14:28.859Z,100280.56
2019-02-18T06:16:59.306Z,100283.94
2019-02-18T06:19:29.795Z,100283.94
2019-02-18T06:22:00.619Z,100281.54
2019-02-18T06:24:31.121Z,100282.36
2019-02-18T06:27:01.569Z,100290.70
2019-02-18T06:29:32.011Z,100286.20
2019-02-18T06:32:02.496Z,100288.13
2019-02-18T06:34:33.015Z,100286.55
2019-02-18T06:37:03.460Z,100285.33
2019-02-18T06:39:41.255Z,100287.64
2019-02-18T06:42:06.420Z,100286.65
2019-02-18T06:44:42.533Z,100286.77
2019-02-18T06:47:16.215Z,100299.30
2019-02-18T06:49:46.707Z,100293.74
2019-02-18T06:52:17.432Z,100300.38
2019-02-18T06:54:48.183Z,100305.43
2019-02-18T06:57:46.634Z,100297.34
2019-02-18T07:00:34.190Z,100307.59
2019-02-18T07:03:09.719Z,100310.39
2019-02-18T07:05:59.114Z,100304.84
2019-02-18T07:08:47.167Z,100308.91
2019-02-18T07:11:22.212Z,100300.75
2019-02-18T07:13:52.709Z,100301.70
2019-02-18T07:16:23.706Z,100305.59
2019-02-18T07:18:54.150Z,100308.86
2019-02-18T07:21:24.619Z,100301.52
2019-02-18T07:23:55.467Z,100303.68
2019-02-18T07:26:25.999Z,100305.37
2019-02-18T07:28:56.617Z,100304.30
2019-02-18T07:31:27.072Z,100306.11
2019-02-18T07:33:57.826Z,100305.86
2019-02-18T07:36:28.277Z,100309.34
2019-02-18T07:38:59.051Z,100307.68
2019-02-18T07:41:29.551Z,100300.94
2019-02-18T07:44:00.374Z,100303.72
2019-02-18T07:46:30.817Z,100296.62
2019-02-18T07:49:01.321Z,100289.86
2019-02-18T07:51:32.580Z,100286.22
2019-02-18T07:54:03.042Z,100284.78
2019-02-18T07:56:33.502Z,100284.41
2019-02-18T07:59:03.948Z,100285.22
2019-02-18T08:01:34.443Z,100289.58
2019-02-18T08:04:04.887Z,100275.19
2019-02-18T08:06:35.326Z,100275.41
2019-02-18T08:09:06.898Z,100273.30
2019-02-18T08:11:37.419Z,100278.48
2019-02-18T08:14:07.921Z,100276.30
2019-02-18T08:16:38.369Z,100275.36
2019-02-18T08:19:09.775Z,100278.77
2019-02-18T08:21:40.266Z,100277.67
2019-02-18T08:24:10.707Z,100273.91
2019-02-18T08:26:44.025Z,100276.11
2019-02-18T08:29:13.789Z,100282.20
2019-02-18T08:31:44.226Z,100277.07
2019-02-18T08:34:14.677Z,100275.13
2019-02-18T08:36:45.439Z,100272.09
2019-02-18T08:39:15.892Z,100267.97
2019-02-18T08:41:46.333Z,100269.91
2019-02-18T08:44:16.822Z,100267.10
2019-02-18T08:46:47.273Z,100268.95
2019-02-18T08:49:17.735Z,100265.72
2019-02-18T08:51:48.541Z,100264.39
2019-02-18T08:54:18.984Z,100266.09
2019-02-18T08:56:49.428Z,100257.00
2019-02-18T08:59:19.918Z,100255.88
2019-02-18T09:01:50.363Z,100252.16
2019-02-18T09:04:21.198Z,100254.05
2019-02-18T09:06:51.845Z,100254.91
2019-02-18T09:09:22.311Z,100255.00
2019-02-18T09:11:52.913Z,100255.13
2019-02-18T09:14:23.400Z,100248.34
2019-02-18T09:16:54.279Z,100249.22
2019-02-18T09:19:24.985Z,100249.84
2019-02-18T09:22:23.691Z,100239.63
2019-02-18T09:25:09.354Z,100240.20
2019-02-18T09:27:39.823Z,100244.34
2019-02-18T09:30:10.298Z,100244.59
2019-02-18T09:32:40.819Z,100240.08
2019-02-18T09:35:11.263Z,100235.90
2019-02-18T09:37:41.752Z,100234.30
2019-02-18T09:40:12.251Z,100232.52
2019-02-18T09:42:42.698Z,100232.55
2019-02-18T09:45:14.762Z,100232.81
2019-02-18T09:47:45.612Z,100227.14
2019-02-18T09:50:16.063Z,100219.66
2019-02-18T09:52:46.544Z,100224.09
2019-02-18T09:55:16.999Z,100218.89
2019-02-18T09:57:47.506Z,100210.81
2019-02-18T10:00:17.953Z,100216.12
2019-02-18T10:02:48.403Z,100213.33
2019-02-18T10:05:19.481Z,100215.81
2019-02-18T10:07:49.934Z,100216.81
2019-02-18T10:10:20.447Z,100212.31
2019-02-18T10:12:50.903Z,100212.75
2019-02-18T10:15:21.395Z,100209.31
2019-02-18T10:17:51.843Z,100207.99
2019-02-18T10:20:22.297Z,100208.69
2019-02-18T10:22:52.800Z,100203.41
2019-02-18T10:25:23.701Z,100201.01
2019-02-18T10:27:54.311Z,100192.82
2019-02-18T10:30:25.771Z,100196.12
2019-02-18T10:32:56.227Z,100195.03
2019-02-18T10:35:26.720Z,100192.89
2019-02-18T10:37:57.171Z,100190.28
2019-02-18T10:40:27.627Z,100193.95
2019-02-18T10:42:58.176Z,100191.30
2019-02-18T10:45:28.653Z,100190.02
2019-02-18T10:47:59.268Z,100183.65
2019-02-18T10:50:29.745Z,100183.33
2019-02-18T10:53:00.580Z,100180.79
2019-02-18T10:55:31.600Z,100176.59
2019-02-18T10:58:02.211Z,100170.73
2019-02-18T11:00:32.662Z,100168.19
2019-02-18T11:03:03.899Z,100165.64
2019-02-18T11:05:34.354Z,100164.95
2019-02-18T11:08:04.803Z,100169.47
2019-02-18T11:10:35.592Z,100164.21
2019-02-18T11:13:06.892Z,100163.52
2019-02-18T11:15:37.342Z,100160.56
2019-02-18T11:18:07.816Z,100157.92
2019-02-18T11:20:38.261Z,100153.55
2019-02-18T11:23:08.756Z,100147.19
2019-02-18T11:25:39.200Z,100144.53
2019-02-18T11:28:10.197Z,100141.44
2019-02-18T11:30:40.676Z,100134.42
2019-02-18T11:33:11.128Z,100128.30
2019-02-18T11:35:41.621Z,100125.86
2019-02-18T11:38:12.232Z,100124.09
2019-02-18T11:40:44.337Z,100118.64
2019-02-18T11:43:15.215Z,100116.37
2019-02-18T11:45:45.659Z,100122.59
2019-02-18T11:48:16.156Z,100111.87
2019-02-18T11:50:46.681Z,100103.62
2019-02-18T11:53:17.136Z,100098.16
2019-02-18T11:55:48.127Z,100103.13
2019-02-18T11:58:18.574Z,100094.48
2019-02-18T12:00:49.019Z,100096.45
2019-02-18T12:03:19.511Z,100089.14
2019-02-18T12:05:50.232Z,100089.00
2019-02-18T12:08:20.684Z,100089.96
2019-02-18T12:10:51.214Z,100084.44
2019-02-18T12:13:21.971Z,100084.08
2019-02-18T12:15:52.810Z,100078.38
2019-02-18T12:18:23.855Z,100075.60
2019-02-18T12:20:54.305Z,100080.58
2019-02-18T12:23:24.797Z,100069.59
2019-02-18T12:25:55.247Z,100064.61
2019-02-18T12:28:25.710Z,100062.23
2019-02-18T12:30:56.202Z,100062.70
2019-02-18T12:33:27.031Z,100063.72
2019-02-18T12:35:57.655Z,100066.55
2019-02-18T12:38:28.523Z,100055.20
2019-02-18T12:40:59.341Z,100053.31
2019-02-18T12:43:30.609Z,100054.70
2019-02-18T12:46:01.449Z,100049.19
2019-02-18T12:48:31.901Z,100045.58
2019-02-18T12:51:03.373Z,100041.33
2019-02-18T12:53:33.826Z,100038.25
2019-02-18T12:56:04.283Z,100035.33
2019-02-18T12:58:34.786Z,100027.14
2019-02-18T13:01:07.240Z,100025.34
2019-02-18T13:03:37.691Z,100017.33
2019-02-18T13:06:08.184Z,100016.95
2019-02-18T13:08:38.635Z,100019.55
2019-02-18T13:11:09.111Z,100011.21
2019-02-18T13:13:39.728Z,100008.41
2019-02-18T13:16:10.371Z,99998.91
2019-02-18T13:18:41.611Z,99993.37
2019-02-18T13:21:12.375Z,99986.56
2019-02-18T13:23:44.063Z,99988.70
2019-02-18T13:26:14.560Z,99984.08
2019-02-18T13:28:45.003Z,99986.43
2019-02-18T13:31:15.833Z,99976.14
2019-02-18T13:33:46.307Z,99972.77
2019-02-18T13:36:17.137Z,99976.53
2019-02-18T13:38:47.611Z,99971.89
2019-02-18T13:41:18.065Z,99970.72
2019-02-18T13:43:48.556Z,99965.70
2019-02-18T13:46:18.998Z,99959.75
2019-02-18T13:48:49.454Z,99957.82
2019-02-18T13:51:24.347Z,99962.37
2019-02-18T13:53:52.310Z,99953.25
2019-02-18T13:56:22.797Z,99955.84
2019-02-18T13:58:53.674Z,99949.94
2019-02-18T14:01:24.543Z,99947.80
2019-02-18T14:03:55.046Z,99948.78
2019-02-18T14:06:25.497Z,99942.85
2019-02-18T14:08:56.306Z,99942.85
2019-02-18T14:11:27.517Z,99938.88
2019-02-18T14:13:57.964Z,99935.62
2019-02-18T14:16:28.447Z,99933.41
2019-02-18T14:18:58.892Z,99932.51
2019-02-18T14:21:29.343Z,99927.48
2019-02-18T14:23:59.818Z,99929.81
2019-02-18T14:26:30.262Z,99928.91
2019-02-18T14:29:01.204Z,99930.04
2019-02-18T14:31:31.664Z,99926.81
2019-02-18T14:34:02.513Z,99923.14
2019-02-18T14:36:32.957Z,99928.58
2019-02-18T14:39:05.164Z,99922.86
2019-02-18T14:41:36.568Z,99925.56
2019-02-18T14:44:07.296Z,99918.59
2019-02-18T14:46:38.143Z,99928.27
2019-02-18T14:49:08.656Z,99921.58
2019-02-18T14:51:39.281Z,99904.56
2019-02-18T14:54:10.199Z,99904.56
2019-02-18T14:56:42.014Z,99909.14
2019-02-18T14:59:12.466Z,99909.14
2019-02-18T15:01:42.942Z,99913.79
2019-02-18T15:04:13.387Z,99909.86
2019-02-18T15:06:43.878Z,99901.33
2019-02-18T15:09:14.938Z,99899.51
2019-02-18T15:11:45.493Z,99902.95
2019-02-18T15:14:15.968Z,99906.30
2019-02-18T15:16:46.432Z,99895.68
2019-02-18T15:19:17.107Z,99892.14
2019-02-18T15:21:47.555Z,99885.69
2019-02-18T15:24:18.006Z,99885.08
2019-02-18T15:26:48.866Z,99881.00
2019-02-18T15:29:20.259Z,99879.00
2019-02-18T15:31:51.284Z,99883.30
2019-02-18T15:34:21.759Z,99872.51
2019-02-18T15:36:52.208Z,99875.54
2019-02-18T15:39:23.662Z,99878.91
2019-02-18T15:41:54.188Z,99879.02
2019-02-18T15:44:24.746Z,99882.11
2019-02-18T15:46:55.725Z,99871.52
2019-02-18T15:49:26.190Z,99872.61
2019-02-18T15:51:56.633Z,99873.18
2019-02-18T15:54:28.871Z,99867.41
2019-02-18T15:56:59.305Z,99867.59
2019-02-18T15:59:29.774Z,99868.19
2019-02-18T16:02:00.220Z,99860.17
2019-02-18T16:04:31.067Z,99862.88
2019-02-18T16:07:01.525Z,99861.56
2019-02-18T16:09:31.978Z,99856.50
2019-02-18T16:12:02.666Z,99855.77
2019-02-18T16:14:33.378Z,99858.70
2019-02-18T16:17:03.939Z,99852.98
2019-02-18T16:19:34.463Z,99849.67
2019-02-18T16:22:04.919Z,99849.28
2019-02-18T16:24:35.408Z,99851.36
2019-02-18T16:27:05.883Z,99845.67
2019-02-18T16:29:36.326Z,99848.31
2019-02-18T16:32:06.820Z,99847.20
2019-02-18T16:34:37.269Z,99843.00
2019-02-18T16:37:08.101Z,99843.99
2019-02-18T16:39:38.942Z,99844.66
2019-02-18T16:42:09.926Z,99837.31
2019-02-18T16:44:41.034Z,99836.34
2019-02-18T16:47:11.575Z,99831.48
2019-02-18T16:49:43.015Z,99832.48
2019-02-18T16:52:14.698Z,99829.84
2019-02-18T16:54:45.149Z,99825.02
2019-02-18T16:57:15.946Z,99825.73
2019-02-18T16:59:46.554Z,99824.43
2019-02-18T17:02:17.012Z,99819.43
2019-02-18T17:04:47.869Z,99815.25
2019-02-18T17:07:18.315Z,99818.64
2019-02-18T17:09:49.144Z,99827.58
2019-02-18T17:12:19.937Z,99819.71
2019-02-18T17:14:50.383Z,99829.84
2019-02-18T17:17:20.858Z,99832.61
2019-02-18T17:19:51.571Z,99824.58
2019-02-18T17:22:22.385Z,99827.13
2019-02-18T17:24:52.962Z,99826.10
2019-02-18T17:27:23.403Z,99822.28
2019-02-18T17:29:53.847Z,99822.12
2019-02-18T17:32:24.722Z,99823.05
2019-02-18T17:34:55.175Z,99820.38
2019-02-18T17:37:25.627Z,99814.88
2019-02-18T17:39:56.522Z,99810.69
2019-02-18T17:42:27.005Z,99805.34
2019-02-18T17:44:57.504Z,99812.45
2019-02-18T17:47:28.017Z,99815.45
2019-02-18T17:49:58.469Z,99808.05
2019-02-18T17:52:29.923Z,99801.01
2019-02-18T17:55:00.442Z,99805.92
2019-02-18T17:57:31.274Z,99801.58
2019-02-18T18:00:02.213Z,99801.28
2019-02-18T18:02:32.771Z,99798.42
2019-02-18T18:05:03.219Z,99794.59
2019-02-18T18:07:34.572Z,99795.77
2019-02-18T18:10:05.862Z,99794.76
2019-02-18T18:12:37.135Z,99794.95
2019-02-18T18:15:09.539Z,99787.91
2019-02-18T18:17:40.596Z,99784.75
2019-02-18T18:20:11.601Z,99790.76
2019-02-18T18:22:42.071Z,99789.75
2019-02-18T18:25:12.866Z,99782.05
2019-02-18T18:27:43.308Z,99789.09
2019-02-18T18:30:14.389Z,99792.11
2019-02-18T18:32:45.348Z,99790.08
2019-02-18T18:35:15.967Z,99795.12
2019-02-18T18:37:46.439Z,99790.09
2019-02-18T18:40:16.983Z,99784.75
2019-02-18T18:42:47.423Z,99783.92
2019-02-18T18:45:17.895Z,99780.90
2019-02-18T18:47:48.413Z,99790.60
2019-02-18T18:50:20.224Z,99780.38
2019-02-18T18:52:53.002Z,99780.08
2019-02-18T18:55:25.751Z,99774.21
2019-02-18T18:57:58.276Z,99774.70
2019-02-18T19:00:30.645Z,99771.20
2019-02-18T19:03:02.220Z,99772.53
2019-02-18T19:05:32.778Z,99769.19
2019-02-18T19:08:03.244Z,99771.53
2019-02-18T19:10:36.316Z,99762.00
2019-02-18T19:13:08.110Z,99756.31
2019-02-18T19:15:39.195Z,99760.80
2019-02-18T19:18:09.634Z,99745.92
2019-02-18T19:20:40.123Z,99748.92
2019-02-18T19:23:10.561Z,99748.54
2019-02-18T19:25:41.044Z,99759.73
2019-02-18T19:28:11.917Z,99755.55
2019-02-18T19:30:42.375Z,99757.22
2019-02-18T19:33:13.862Z,99762.92
2019-02-18T19:35:45.048Z,99765.09
2019-02-18T19:38:17.478Z,99768.59
2019-02-18T19:40:48.307Z,99767.94
2019-02-18T19:43:19.198Z,99768.10
2019-02-18T19:45:51.132Z,99769.62
2019-02-18T19:48:21.592Z,99765.27
2019-02-18T19:50:52.094Z,99770.63
2019-02-18T19:53:22.606Z,99769.98
2019-02-18T19:55:56.018Z,99770.63
2019-02-18T19:58:26.551Z,99768.81
2019-02-18T20:00:59.186Z,99768.30
2019-02-18T20:03:29.646Z,99774.64
2019-02-18T20:06:00.738Z,99765.96
2019-02-18T20:08:31.214Z,99765.95
2019-02-18T20:11:01.661Z,99768.94
2019-02-18T20:13:32.161Z,99768.45
2019-02-18T20:16:03.032Z,99772.78
2019-02-18T20:18:35.771Z,99777.64
2019-02-18T20:21:07.008Z,99775.27
2019-02-18T20:23:38.245Z,99778.11
2019-02-18T20:26:09.057Z,99778.75
2019-02-18T20:28:39.958Z,99773.56
2019-02-18T20:31:10.397Z,99775.59
2019-02-18T20:33:45.742Z,99769.54
2019-02-18T20:36:17.306Z,99766.47
2019-02-18T20:38:48.509Z,99770.64
2019-02-18T20:41:18.994Z,99768.41
2019-02-18T20:43:50.493Z,99768.92
2019-02-18T20:46:22.647Z,99767.94
2019-02-18T20:48:53.174Z,99773.06
2019-02-18T20:51:23.644Z,99771.06
2019-02-18T20:53:54.426Z,99768.20
2019-02-18T20:56:25.125Z,99765.67
2019-02-18T20:58:55.581Z,99762.48
2019-02-18T21:01:26.078Z,99772.17
2019-02-18T21:03:59.086Z,99774.34
2019-02-18T21:06:30.866Z,99780.39
2019-02-18T21:09:01.387Z,99785.20
2019-02-18T21:11:32.280Z,99789.48
2019-02-18T21:14:04.571Z,99784.44
2019-02-18T21:16:36.565Z,99775.73
2019-02-18T21:19:07.046Z,99775.05
2019-02-18T21:21:37.780Z,99777.54
2019-02-18T21:24:08.291Z,99774.52
2019-02-18T21:26:39.106Z,99776.27
2019-02-18T21:29:09.540Z,99771.20
2019-02-18T21:31:39.980Z,99768.92
2019-02-18T21:34:10.485Z,99776.69
2019-02-18T21:36:41.289Z,99772.33
2019-02-18T21:39:15.039Z,99769.41
2019-02-18T21:41:45.526Z,99771.00
2019-02-18T21:44:24.710Z,99774.81
2019-02-18T21:46:48.608Z,99771.19
2019-02-18T21:49:19.124Z,99767.35
2019-02-18T21:51:49.580Z,99769.80
2019-02-18T21:54:20.315Z,99768.45
2019-02-18T21:56:51.248Z,99761.88
2019-02-18T21:59:22.113Z,99760.00
2019-02-18T22:01:52.936Z,99752.45
2019-02-18T22:04:24.104Z,99755.63
2019-02-18T22:06:54.550Z,99752.67
2019-02-18T22:09:25.376Z,99763.15
2019-02-18T22:11:56.035Z,99757.22
2019-02-18T22:14:33.203Z,99761.72
2019-02-18T22:16:59.060Z,99763.81
2019-02-18T22:19:29.538Z,99749.52
2019-02-18T22:21:59.972Z,99751.16
2019-02-18T22:24:30.785Z,99757.14
2019-02-18T22:27:01.288Z,99741.76
2019-02-18T22:29:32.162Z,99743.66
2019-02-18T22:32:03.927Z,99741.78
2019-02-18T22:34:34.409Z,99746.81
2019-02-18T22:37:05.202Z,99746.42
2019-02-18T22:39:35.640Z,99745.02
2019-02-18T22:42:06.525Z,99752.11
2019-02-18T22:44:41.981Z,99752.58
2019-02-18T22:47:09.594Z,99755.83
2019-02-18T22:49:40.077Z,99755.01
2019-02-18T22:52:10.501Z,99752.30
2019-02-18T22:54:40.955Z,99745.25
2019-02-18T22:57:12.012Z,99743.80
2019-02-18T22:59:42.435Z,99747.56
2019-02-18T23:02:14.219Z,99748.27
2019-02-18T23:04:45.055Z,99745.98
2019-02-18T23:07:15.520Z,99746.49
2019-02-18T23:09:46.113Z,99746.38
2019-02-18T23:12:16.588Z,99744.16
2019-02-18T23:14:50.521Z,99740.33
2019-02-18T23:17:19.155Z,99748.41
2019-02-18T23:19:50.002Z,99738.23
2019-02-18T23:22:20.431Z,99742.97
2019-02-18T23:24:52.008Z,99740.46
2019-02-18T23:27:22.497Z,99741.48
2019-02-18T23:29:52.999Z,99732.52
2019-02-18T23:32:23.772Z,99732.90
2019-02-18T23:34:54.435Z,99741.44
2019-02-18T23:37:24.861Z,99731.38
2019-02-18T23:39:55.663Z,99730.04
2019-02-18T23:42:26.499Z,99733.52
2019-02-18T23:44:59.343Z,99733.02
2019-02-18T23:47:29.428Z,99732.75
2019-02-18T23:50:00.306Z,99731.58
2019-02-18T23:52:30.751Z,99738.34
2019-02-18T23:55:01.190Z,99734.79
2019-02-18T23:57:31.698Z,99730.20
